sensor_id;sensor_type;location;lat;lon;timestamp;temperature;humidity
38325;DHT22;24126;52.672;13.622;2022-10-15T00:00:06;17.50;71.50
38325;DHT22;24126;52.672;13.622;2022-10-15T00:02:33;17.50;71.50
38325;DHT22;24126;52.672;13.622;2022-10-15T00:05:00;17.60;71.50
38325;DHT22;24126;52.672;13.622;2022-10-15T00:07:27;17.60;71.50
38325;DHT22;24126;52.672;13.622;2022-10-15T00:09:55;17.60;71.40
38325;DHT22;24126;52.672;13.622;2022-10-15T00:12:22;17.60;71.60
38325;DHT22;24126;52.672;13.622;2022-10-15T00:14:49;17.60;71.60
38325;DHT22;24126;52.672;13.622;2022-10-15T00:17:16;17.60;71.60
38325;DHT22;24126;52.672;13.622;2022-10-15T00:19:43;17.60;71.50
38325;DHT22;24126;52.672;13.622;2022-10-15T00:22:10;17.60;71.60
38325;DHT22;24126;52.672;13.622;2022-10-15T00:24:37;17.60;71.50
38325;DHT22;24126;52.672;13.622;2022-10-15T00:27:04;17.60;71.90
38325;DHT22;24126;52.672;13.622;2022-10-15T00:29:31;17.60;72.10
38325;DHT22;24126;52.672;13.622;2022-10-15T00:31:58;17.60;72.20
38325;DHT22;24126;52.672;13.622;2022-10-15T00:34:25;17.60;72.30
38325;DHT22;24126;52.672;13.622;2022-10-15T00:36:52;17.60;72.50
38325;DHT22;24126;52.672;13.622;2022-10-15T00:39:19;17.60;72.70
38325;DHT22;24126;52.672;13.622;2022-10-15T00:41:46;17.50;72.80
38325;DHT22;24126;52.672;13.622;2022-10-15T00:46:48;17.50;73.10
38325;DHT22;24126;52.672;13.622;2022-10-15T00:49:24;17.50;73.30
38325;DHT22;24126;52.672;13.622;2022-10-15T00:51:56;17.50;73.50
38325;DHT22;24126;52.672;13.622;2022-10-15T00:54:24;17.50;73.60
38325;DHT22;24126;52.672;13.622;2022-10-15T00:56:52;17.50;73.70
38325;DHT22;24126;52.672;13.622;2022-10-15T00:59:21;17.50;73.90
38325;DHT22;24126;52.672;13.622;2022-10-15T01:01:52;17.50;74.20
38325;DHT22;24126;52.672;13.622;2022-10-15T01:04:20;17.50;74.30
38325;DHT22;24126;52.672;13.622;2022-10-15T01:06:48;17.50;74.50
38325;DHT22;24126;52.672;13.622;2022-10-15T01:09:14;17.50;74.50
38325;DHT22;24126;52.672;13.622;2022-10-15T01:11:45;17.50;74.50
38325;DHT22;24126;52.672;13.622;2022-10-15T01:14:17;17.50;74.50
38325;DHT22;24126;52.672;13.622;2022-10-15T01:16:53;17.50;74.60
38325;DHT22;24126;52.672;13.622;2022-10-15T01:22:21;17.50;75.10
38325;DHT22;24126;52.672;13.622;2022-10-15T01:25:02;17.50;75.20
38325;DHT22;24126;52.672;13.622;2022-10-15T01:27:32;17.50;75.40
38325;DHT22;24126;52.672;13.622;2022-10-15T01:30:17;17.50;75.60
38325;DHT22;24126;52.672;13.622;2022-10-15T01:35:32;17.50;75.60
38325;DHT22;24126;52.672;13.622;2022-10-15T01:38:08;17.50;75.90
38325;DHT22;24126;52.672;13.622;2022-10-15T01:40:42;17.50;76.00
38325;DHT22;24126;52.672;13.622;2022-10-15T01:43:12;17.50;76.20
38325;DHT22;24126;52.672;13.622;2022-10-15T01:45:53;17.50;76.10
38325;DHT22;24126;52.672;13.622;2022-10-15T01:48:40;17.50;76.30
38325;DHT22;24126;52.672;13.622;2022-10-15T01:51:07;17.50;76.50
38325;DHT22;24126;52.672;13.622;2022-10-15T01:53:36;17.50;76.50
38325;DHT22;24126;52.672;13.622;2022-10-15T01:56:08;17.50;76.60
38325;DHT22;24126;52.672;13.622;2022-10-15T01:58:38;17.50;76.80
38325;DHT22;24126;52.672;13.622;2022-10-15T02:01:05;17.50;76.90
38325;DHT22;24126;52.672;13.622;2022-10-15T02:03:44;17.50;76.80
38325;DHT22;24126;52.672;13.622;2022-10-15T02:06:14;17.60;76.80
38325;DHT22;24126;52.672;13.622;2022-10-15T02:08:55;17.50;77.10
38325;DHT22;24126;52.672;13.622;2022-10-15T02:11:24;17.50;77.30
38325;DHT22;24126;52.672;13.622;2022-10-15T02:16:26;17.50;77.20
38325;DHT22;24126;52.672;13.622;2022-10-15T02:18:59;17.50;77.20
38325;DHT22;24126;52.672;13.622;2022-10-15T02:26:35;17.60;77.40
38325;DHT22;24126;52.672;13.622;2022-10-15T02:29:04;17.60;77.30
38325;DHT22;24126;52.672;13.622;2022-10-15T02:31:32;17.60;77.30
38325;DHT22;24126;52.672;13.622;2022-10-15T02:34:02;17.70;77.30
38325;DHT22;24126;52.672;13.622;2022-10-15T02:36:30;17.60;77.10
38325;DHT22;24126;52.672;13.622;2022-10-15T02:38:57;17.60;77.30
38325;DHT22;24126;52.672;13.622;2022-10-15T02:41:29;17.60;77.50
38325;DHT22;24126;52.672;13.622;2022-10-15T02:43:56;17.60;77.50
38325;DHT22;24126;52.672;13.622;2022-10-15T02:46:23;17.60;77.60
38325;DHT22;24126;52.672;13.622;2022-10-15T02:48:50;17.60;77.50
38325;DHT22;24126;52.672;13.622;2022-10-15T02:51:17;17.70;77.70
38325;DHT22;24126;52.672;13.622;2022-10-15T02:53:44;17.70;77.50
38325;DHT22;24126;52.672;13.622;2022-10-15T02:56:12;17.70;77.40
38325;DHT22;24126;52.672;13.622;2022-10-15T02:58:39;17.70;77.40
38325;DHT22;24126;52.672;13.622;2022-10-15T03:01:06;17.70;77.40
38325;DHT22;24126;52.672;13.622;2022-10-15T03:03:34;17.70;77.40
38325;DHT22;24126;52.672;13.622;2022-10-15T03:06:01;17.70;77.60
38325;DHT22;24126;52.672;13.622;2022-10-15T03:08:28;17.70;77.60
38325;DHT22;24126;52.672;13.622;2022-10-15T03:10:55;17.60;77.80
38325;DHT22;24126;52.672;13.622;2022-10-15T03:13:23;17.60;77.90
38325;DHT22;24126;52.672;13.622;2022-10-15T03:15:51;17.60;77.90
38325;DHT22;24126;52.672;13.622;2022-10-15T03:18:20;17.60;78.00
38325;DHT22;24126;52.672;13.622;2022-10-15T03:20:54;17.60;78.00
38325;DHT22;24126;52.672;13.622;2022-10-15T03:23:21;17.70;78.00
38325;DHT22;24126;52.672;13.622;2022-10-15T03:25:54;17.60;78.10
38325;DHT22;24126;52.672;13.622;2022-10-15T03:28:22;17.70;78.10
38325;DHT22;24126;52.672;13.622;2022-10-15T03:30:49;17.70;78.10
38325;DHT22;24126;52.672;13.622;2022-10-15T03:33:17;17.80;78.00
38325;DHT22;24126;52.672;13.622;2022-10-15T03:35:44;17.80;77.90
38325;DHT22;24126;52.672;13.622;2022-10-15T03:38:12;17.80;77.90
38325;DHT22;24126;52.672;13.622;2022-10-15T03:40:39;17.80;77.80
38325;DHT22;24126;52.672;13.622;2022-10-15T03:43:21;17.80;77.80
38325;DHT22;24126;52.672;13.622;2022-10-15T03:45:49;17.80;77.70
38325;DHT22;24126;52.672;13.622;2022-10-15T03:48:20;17.80;77.90
38325;DHT22;24126;52.672;13.622;2022-10-15T03:50:47;17.80;78.00
38325;DHT22;24126;52.672;13.622;2022-10-15T03:53:14;17.80;78.10
38325;DHT22;24126;52.672;13.622;2022-10-15T03:55:42;17.70;78.10
38325;DHT22;24126;52.672;13.622;2022-10-15T03:58:09;17.80;78.30
38325;DHT22;24126;52.672;13.622;2022-10-15T04:00:41;17.80;78.10
38325;DHT22;24126;52.672;13.622;2022-10-15T04:03:09;17.80;78.20
38325;DHT22;24126;52.672;13.622;2022-10-15T04:05:36;17.80;78.10
38325;DHT22;24126;52.672;13.622;2022-10-15T04:08:06;17.80;78.00
38325;DHT22;24126;52.672;13.622;2022-10-15T04:10:37;17.90;78.00
38325;DHT22;24126;52.672;13.622;2022-10-15T04:13:06;17.90;77.80
38325;DHT22;24126;52.672;13.622;2022-10-15T04:15:34;17.90;77.80
38325;DHT22;24126;52.672;13.622;2022-10-15T04:18:07;17.90;77.80
38325;DHT22;24126;52.672;13.622;2022-10-15T04:20:35;17.90;77.80
38325;DHT22;24126;52.672;13.622;2022-10-15T05:04:45;17.90;78.30
38325;DHT22;24126;52.672;13.622;2022-10-15T05:07:12;17.90;78.30
38325;DHT22;24126;52.672;13.622;2022-10-15T05:09:40;17.90;78.30
38325;DHT22;24126;52.672;13.622;2022-10-15T05:12:08;17.90;78.30
38325;DHT22;24126;52.672;13.622;2022-10-15T05:14:35;17.90;78.10
38325;DHT22;24126;52.672;13.622;2022-10-15T05:17:16;18.00;78.10
38325;DHT22;24126;52.672;13.622;2022-10-15T05:19:47;18.00;78.10
38325;DHT22;24126;52.672;13.622;2022-10-15T05:22:21;18.00;77.90
38325;DHT22;24126;52.672;13.622;2022-10-15T05:24:58;18.00;78.10
38325;DHT22;24126;52.672;13.622;2022-10-15T05:27:32;18.00;78.20
38325;DHT22;24126;52.672;13.622;2022-10-15T05:30:08;18.00;78.30
38325;DHT22;24126;52.672;13.622;2022-10-15T05:32:50;18.00;78.20
38325;DHT22;24126;52.672;13.622;2022-10-15T05:35:37;18.00;78.10
38325;DHT22;24126;52.672;13.622;2022-10-15T05:38:30;18.00;78.30
38325;DHT22;24126;52.672;13.622;2022-10-15T05:41:11;18.00;78.40
38325;DHT22;24126;52.672;13.622;2022-10-15T05:44:01;18.00;78.30
38325;DHT22;24126;52.672;13.622;2022-10-15T05:46:34;18.00;78.30
38325;DHT22;24126;52.672;13.622;2022-10-15T05:49:16;18.00;78.30
38325;DHT22;24126;52.672;13.622;2022-10-15T05:52:16;18.00;78.30
38325;DHT22;24126;52.672;13.622;2022-10-15T05:55:12;18.00;78.40
38325;DHT22;24126;52.672;13.622;2022-10-15T05:57:52;18.10;78.40
38325;DHT22;24126;52.672;13.622;2022-10-15T06:00:32;18.00;78.40
38325;DHT22;24126;52.672;13.622;2022-10-15T06:03:02;18.00;78.20
38325;DHT22;24126;52.672;13.622;2022-10-15T06:05:37;18.00;78.20
38325;DHT22;24126;52.672;13.622;2022-10-15T06:08:14;18.00;78.40
38325;DHT22;24126;52.672;13.622;2022-10-15T06:14:34;18.00;78.40
38325;DHT22;24126;52.672;13.622;2022-10-15T06:17:18;18.00;78.40
38325;DHT22;24126;52.672;13.622;2022-10-15T06:19:51;18.10;78.40
38325;DHT22;24126;52.672;13.622;2022-10-15T06:22:21;18.10;78.40
38325;DHT22;24126;52.672;13.622;2022-10-15T06:24:57;18.10;78.40
38325;DHT22;24126;52.672;13.622;2022-10-15T06:27:33;18.20;78.50
38325;DHT22;24126;52.672;13.622;2022-10-15T06:30:11;18.20;78.60
38325;DHT22;24126;52.672;13.622;2022-10-15T06:35:38;18.20;78.60
38325;DHT22;24126;52.672;13.622;2022-10-15T06:38:11;18.20;78.50
38325;DHT22;24126;52.672;13.622;2022-10-15T06:40:44;18.30;78.70
38325;DHT22;24126;52.672;13.622;2022-10-15T06:43:11;18.30;78.70
38325;DHT22;24126;52.672;13.622;2022-10-15T06:45:40;18.30;78.50
38325;DHT22;24126;52.672;13.622;2022-10-15T06:48:19;18.30;78.50
38325;DHT22;24126;52.672;13.622;2022-10-15T06:50:46;18.30;78.50
38325;DHT22;24126;52.672;13.622;2022-10-15T06:53:13;18.40;78.40
38325;DHT22;24126;52.672;13.622;2022-10-15T06:55:41;18.40;78.40
38325;DHT22;24126;52.672;13.622;2022-10-15T06:58:15;18.40;78.50
38325;DHT22;24126;52.672;13.622;2022-10-15T07:01:02;18.40;78.40
38325;DHT22;24126;52.672;13.622;2022-10-15T07:03:41;18.50;78.50
38325;DHT22;24126;52.672;13.622;2022-10-15T07:06:10;18.50;78.50
38325;DHT22;24126;52.672;13.622;2022-10-15T07:08:39;18.50;78.30
38325;DHT22;24126;52.672;13.622;2022-10-15T07:11:06;18.60;78.40
38325;DHT22;24126;52.672;13.622;2022-10-15T07:13:34;18.60;78.40
38325;DHT22;24126;52.672;13.622;2022-10-15T07:16:08;18.60;78.40
38325;DHT22;24126;52.672;13.622;2022-10-15T07:21:30;18.70;78.40
38325;DHT22;24126;52.672;13.622;2022-10-15T07:23:57;18.70;78.30
38325;DHT22;24126;52.672;13.622;2022-10-15T07:26:26;18.70;78.20
38325;DHT22;24126;52.672;13.622;2022-10-15T07:29:05;18.80;78.20
38325;DHT22;24126;52.672;13.622;2022-10-15T07:31:33;18.80;78.20
38325;DHT22;24126;52.672;13.622;2022-10-15T07:34:03;18.80;78.30
38325;DHT22;24126;52.672;13.622;2022-10-15T07:36:35;18.80;78.30
38325;DHT22;24126;52.672;13.622;2022-10-15T07:39:03;18.90;78.40
38325;DHT22;24126;52.672;13.622;2022-10-15T07:41:30;18.90;78.40
38325;DHT22;24126;52.672;13.622;2022-10-15T07:43:58;18.90;78.40
38325;DHT22;24126;52.672;13.622;2022-10-15T07:53:22;19.10;78.30
38325;DHT22;24126;52.672;13.622;2022-10-15T07:56:11;19.10;78.30
38325;DHT22;24126;52.672;13.622;2022-10-15T07:58:41;19.20;78.40
38325;DHT22;24126;52.672;13.622;2022-10-15T08:01:16;19.20;78.30
38325;DHT22;24126;52.672;13.622;2022-10-15T08:03:44;19.30;78.30
38325;DHT22;24126;52.672;13.622;2022-10-15T08:06:13;19.30;78.40
38325;DHT22;24126;52.672;13.622;2022-10-15T08:08:40;19.30;78.20
38325;DHT22;24126;52.672;13.622;2022-10-15T08:11:12;19.40;78.30
38325;DHT22;24126;52.672;13.622;2022-10-15T08:13:40;19.50;78.40
38325;DHT22;24126;52.672;13.622;2022-10-15T08:16:07;19.60;78.50
38325;DHT22;24126;52.672;13.622;2022-10-15T08:18:35;19.80;78.40
38325;DHT22;24126;52.672;13.622;2022-10-15T08:21:03;19.90;78.00
38325;DHT22;24126;52.672;13.622;2022-10-15T08:23:34;20.00;77.70
38325;DHT22;24126;52.672;13.622;2022-10-15T08:26:01;20.10;77.60
38325;DHT22;24126;52.672;13.622;2022-10-15T08:28:30;20.30;78.20
38325;DHT22;24126;52.672;13.622;2022-10-15T08:34:29;21.10;77.60
38325;DHT22;24126;52.672;13.622;2022-10-15T08:37:01;21.50;75.90
38325;DHT22;24126;52.672;13.622;2022-10-15T08:39:28;21.70;75.40
38325;DHT22;24126;52.672;13.622;2022-10-15T08:41:56;21.90;74.30
38325;DHT22;24126;52.672;13.622;2022-10-15T08:44:40;22.20;73.30
38325;DHT22;24126;52.672;13.622;2022-10-15T08:47:22;22.40;73.10
38325;DHT22;24126;52.672;13.622;2022-10-15T08:56:16;23.00;70.10
38325;DHT22;24126;52.672;13.622;2022-10-15T09:01:43;23.20;69.60
38325;DHT22;24126;52.672;13.622;2022-10-15T09:04:22;23.30;69.20
38325;DHT22;24126;52.672;13.622;2022-10-15T09:14:40;23.90;67.30
38325;DHT22;24126;52.672;13.622;2022-10-15T09:17:20;24.00;66.80
38325;DHT22;24126;52.672;13.622;2022-10-15T09:19:48;24.20;66.00
38325;DHT22;24126;52.672;13.622;2022-10-15T09:22:17;24.30;66.00
38325;DHT22;24126;52.672;13.622;2022-10-15T09:24:46;24.50;65.50
38325;DHT22;24126;52.672;13.622;2022-10-15T09:32:19;24.90;63.90
38325;DHT22;24126;52.672;13.622;2022-10-15T09:37:18;24.90;62.90
38325;DHT22;24126;52.672;13.622;2022-10-15T09:40:15;24.90;63.10
38325;DHT22;24126;52.672;13.622;2022-10-15T09:42:47;24.70;62.80
38325;DHT22;24126;52.672;13.622;2022-10-15T09:45:15;24.60;63.30
38325;DHT22;24126;52.672;13.622;2022-10-15T09:47:43;24.40;63.30
38325;DHT22;24126;52.672;13.622;2022-10-15T09:50:11;24.40;63.90
38325;DHT22;24126;52.672;13.622;2022-10-15T09:52:44;24.30;63.70
38325;DHT22;24126;52.672;13.622;2022-10-15T09:57:59;24.40;63.60
38325;DHT22;24126;52.672;13.622;2022-10-15T10:00:50;24.50;63.30
38325;DHT22;24126;52.672;13.622;2022-10-15T10:03:17;24.50;62.90
38325;DHT22;24126;52.672;13.622;2022-10-15T10:05:44;24.60;62.80
38325;DHT22;24126;52.672;13.622;2022-10-15T10:10:45;24.50;62.70
38325;DHT22;24126;52.672;13.622;2022-10-15T10:13:23;24.50;62.60
38325;DHT22;24126;52.672;13.622;2022-10-15T10:15:52;24.40;62.30
38325;DHT22;24126;52.672;13.622;2022-10-15T10:18:23;24.30;62.40
38325;DHT22;24126;52.672;13.622;2022-10-15T10:20:54;24.30;62.70
38325;DHT22;24126;52.672;13.622;2022-10-15T10:23:31;24.20;62.80
38325;DHT22;24126;52.672;13.622;2022-10-15T10:26:00;24.10;63.20
38325;DHT22;24126;52.672;13.622;2022-10-15T10:28:36;24.20;63.20
38325;DHT22;24126;52.672;13.622;2022-10-15T10:31:04;24.20;63.60
38325;DHT22;24126;52.672;13.622;2022-10-15T10:33:33;24.20;63.60
38325;DHT22;24126;52.672;13.622;2022-10-15T10:36:01;24.30;63.80
38325;DHT22;24126;52.672;13.622;2022-10-15T10:38:29;24.50;63.70
38325;DHT22;24126;52.672;13.622;2022-10-15T10:40:58;24.60;63.30
38325;DHT22;24126;52.672;13.622;2022-10-15T10:43:30;24.60;62.90
38325;DHT22;24126;52.672;13.622;2022-10-15T10:46:04;24.60;62.40
38325;DHT22;24126;52.672;13.622;2022-10-15T10:48:48;24.60;62.40
38325;DHT22;24126;52.672;13.622;2022-10-15T10:51:17;24.50;62.60
38325;DHT22;24126;52.672;13.622;2022-10-15T10:54:00;24.40;62.80
38325;DHT22;24126;52.672;13.622;2022-10-15T10:56:30;24.40;62.80
38325;DHT22;24126;52.672;13.622;2022-10-15T10:59:01;24.40;63.00
38325;DHT22;24126;52.672;13.622;2022-10-15T11:01:28;24.30;62.90
38325;DHT22;24126;52.672;13.622;2022-10-15T11:03:55;24.30;62.90
38325;DHT22;24126;52.672;13.622;2022-10-15T11:06:25;24.20;63.00
38325;DHT22;24126;52.672;13.622;2022-10-15T11:11:41;24.10;63.20
38325;DHT22;24126;52.672;13.622;2022-10-15T11:14:21;24.00;63.40
38325;DHT22;24126;52.672;13.622;2022-10-15T11:19:37;24.00;63.70
38325;DHT22;24126;52.672;13.622;2022-10-15T11:22:17;23.90;63.90
38325;DHT22;24126;52.672;13.622;2022-10-15T11:24:53;23.90;64.00
38325;DHT22;24126;52.672;13.622;2022-10-15T11:27:31;23.80;64.00
38325;DHT22;24126;52.672;13.622;2022-10-15T11:33:04;23.80;64.30
38325;DHT22;24126;52.672;13.622;2022-10-15T11:35:39;23.80;64.50
38325;DHT22;24126;52.672;13.622;2022-10-15T11:40:46;23.80;64.60
38325;DHT22;24126;52.672;13.622;2022-10-15T11:48:39;23.90;64.40
38325;DHT22;24126;52.672;13.622;2022-10-15T11:51:21;23.90;64.20
38325;DHT22;24126;52.672;13.622;2022-10-15T11:54:05;23.90;64.10
38325;DHT22;24126;52.672;13.622;2022-10-15T11:56:52;23.90;64.20
38325;DHT22;24126;52.672;13.622;2022-10-15T11:59:39;24.00;64.30
38325;DHT22;24126;52.672;13.622;2022-10-15T12:02:11;24.00;64.10
38325;DHT22;24126;52.672;13.622;2022-10-15T12:04:40;24.10;63.70
38325;DHT22;24126;52.672;13.622;2022-10-15T12:07:12;24.10;63.70
38325;DHT22;24126;52.672;13.622;2022-10-15T12:09:43;24.20;63.70
38325;DHT22;24126;52.672;13.622;2022-10-15T12:12:40;24.10;63.50
38325;DHT22;24126;52.672;13.622;2022-10-15T12:15:23;24.00;63.50
38325;DHT22;24126;52.672;13.622;2022-10-15T12:18:07;24.00;63.70
38325;DHT22;24126;52.672;13.622;2022-10-15T12:25:44;23.80;64.00
38325;DHT22;24126;52.672;13.622;2022-10-15T12:28:29;23.70;64.20
38325;DHT22;24126;52.672;13.622;2022-10-15T12:36:28;23.70;64.70
38325;DHT22;24126;52.672;13.622;2022-10-15T12:39:30;23.70;64.60
38325;DHT22;24126;52.672;13.622;2022-10-15T12:42:01;23.70;64.50
38325;DHT22;24126;52.672;13.622;2022-10-15T12:44:37;23.70;64.50
38325;DHT22;24126;52.672;13.622;2022-10-15T12:47:54;23.70;64.60
38325;DHT22;24126;52.672;13.622;2022-10-15T12:50:25;23.60;64.60
38325;DHT22;24126;52.672;13.622;2022-10-15T12:55:35;23.60;64.60
38325;DHT22;24126;52.672;13.622;2022-10-15T12:58:54;23.60;64.70
38325;DHT22;24126;52.672;13.622;2022-10-15T13:01:56;23.60;64.70
38325;DHT22;24126;52.672;13.622;2022-10-15T13:14:29;23.50;64.60
38325;DHT22;24126;52.672;13.622;2022-10-15T13:17:27;23.50;64.90
38325;DHT22;24126;52.672;13.622;2022-10-15T13:20:04;23.50;64.70
38325;DHT22;24126;52.672;13.622;2022-10-15T13:23:28;23.40;64.40
38325;DHT22;24126;52.672;13.622;2022-10-15T13:26:40;23.40;64.60
38325;DHT22;24126;52.672;13.622;2022-10-15T13:29:28;23.40;64.70
38325;DHT22;24126;52.672;13.622;2022-10-15T13:32:10;23.40;64.90
38325;DHT22;24126;52.672;13.622;2022-10-15T13:35:44;23.40;64.60
38325;DHT22;24126;52.672;13.622;2022-10-15T13:40:15;23.30;64.40
38325;DHT22;24126;52.672;13.622;2022-10-15T13:48:18;23.20;64.90
38325;DHT22;24126;52.672;13.622;2022-10-15T13:52:10;23.20;65.20
38325;DHT22;24126;52.672;13.622;2022-10-15T13:54:37;23.10;65.00
38325;DHT22;24126;52.672;13.622;2022-10-15T13:57:04;23.10;65.10
38325;DHT22;24126;52.672;13.622;2022-10-15T13:59:31;23.10;65.10
38325;DHT22;24126;52.672;13.622;2022-10-15T14:01:59;23.20;65.40
38325;DHT22;24126;52.672;13.622;2022-10-15T14:04:29;23.20;65.20
38325;DHT22;24126;52.672;13.622;2022-10-15T14:09:33;23.20;65.30
38325;DHT22;24126;52.672;13.622;2022-10-15T14:12:00;23.20;65.20
38325;DHT22;24126;52.672;13.622;2022-10-15T14:14:28;23.20;64.90
38325;DHT22;24126;52.672;13.622;2022-10-15T14:16:56;23.20;65.10
38325;DHT22;24126;52.672;13.622;2022-10-15T14:19:24;23.10;65.30
38325;DHT22;24126;52.672;13.622;2022-10-15T14:21:55;23.10;65.30
38325;DHT22;24126;52.672;13.622;2022-10-15T14:24:23;23.00;65.40
38325;DHT22;24126;52.672;13.622;2022-10-15T14:26:53;23.00;65.10
38325;DHT22;24126;52.672;13.622;2022-10-15T14:31:47;22.90;65.00
38325;DHT22;24126;52.672;13.622;2022-10-15T14:34:25;22.90;65.10
38325;DHT22;24126;52.672;13.622;2022-10-15T14:36:54;22.80;65.40
38325;DHT22;24126;52.672;13.622;2022-10-15T14:39:24;22.70;65.30
38325;DHT22;24126;52.672;13.622;2022-10-15T14:41:53;22.70;65.30
38325;DHT22;24126;52.672;13.622;2022-10-15T14:44:20;22.70;65.50
38325;DHT22;24126;52.672;13.622;2022-10-15T14:46:48;22.70;65.50
38325;DHT22;24126;52.672;13.622;2022-10-15T14:51:43;22.70;65.30
38325;DHT22;24126;52.672;13.622;2022-10-15T14:54:17;22.60;65.50
38325;DHT22;24126;52.672;13.622;2022-10-15T14:56:46;22.60;65.60
38325;DHT22;24126;52.672;13.622;2022-10-15T14:59:15;22.50;65.80
38325;DHT22;24126;52.672;13.622;2022-10-15T15:01:53;22.50;65.90
38325;DHT22;24126;52.672;13.622;2022-10-15T15:07:20;22.40;66.00
38325;DHT22;24126;52.672;13.622;2022-10-15T15:09:48;22.40;66.00
38325;DHT22;24126;52.672;13.622;2022-10-15T15:12:19;22.40;66.20
38325;DHT22;24126;52.672;13.622;2022-10-15T15:14:46;22.30;66.70
38325;DHT22;24126;52.672;13.622;2022-10-15T15:17:14;22.30;66.50
38325;DHT22;24126;52.672;13.622;2022-10-15T15:19:42;22.30;66.60
38325;DHT22;24126;52.672;13.622;2022-10-15T15:22:10;22.30;66.80
38325;DHT22;24126;52.672;13.622;2022-10-15T15:24:37;22.30;66.90
38325;DHT22;24126;52.672;13.622;2022-10-15T15:27:05;22.30;66.90
38325;DHT22;24126;52.672;13.622;2022-10-15T15:29:32;22.20;67.00
38325;DHT22;24126;52.672;13.622;2022-10-15T15:31:59;22.20;67.00
38325;DHT22;24126;52.672;13.622;2022-10-15T15:34:25;22.20;67.10
38325;DHT22;24126;52.672;13.622;2022-10-15T15:36:52;22.20;67.20
38325;DHT22;24126;52.672;13.622;2022-10-15T15:39:19;22.10;67.20
38325;DHT22;24126;52.672;13.622;2022-10-15T15:41:46;22.10;67.30
38325;DHT22;24126;52.672;13.622;2022-10-15T15:44:13;22.10;67.30
38325;DHT22;24126;52.672;13.622;2022-10-15T15:46:40;22.10;67.50
38325;DHT22;24126;52.672;13.622;2022-10-15T15:49:08;22.00;67.50
38325;DHT22;24126;52.672;13.622;2022-10-15T15:51:35;21.90;67.70
38325;DHT22;24126;52.672;13.622;2022-10-15T15:54:02;21.90;67.80
38325;DHT22;24126;52.672;13.622;2022-10-15T15:56:31;21.90;68.00
38325;DHT22;24126;52.672;13.622;2022-10-15T15:58:59;21.80;68.10
38325;DHT22;24126;52.672;13.622;2022-10-15T16:01:26;21.80;68.30
38325;DHT22;24126;52.672;13.622;2022-10-15T16:03:53;21.80;68.30
38325;DHT22;24126;52.672;13.622;2022-10-15T16:06:20;21.70;68.50
38325;DHT22;24126;52.672;13.622;2022-10-15T16:08:49;21.70;68.60
38325;DHT22;24126;52.672;13.622;2022-10-15T16:11:16;21.70;68.60
38325;DHT22;24126;52.672;13.622;2022-10-15T16:13:43;21.70;68.70
38325;DHT22;24126;52.672;13.622;2022-10-15T16:16:10;21.60;68.80
38325;DHT22;24126;52.672;13.622;2022-10-15T16:18:37;21.60;69.00
38325;DHT22;24126;52.672;13.622;2022-10-15T16:21:05;21.50;69.00
38325;DHT22;24126;52.672;13.622;2022-10-15T16:23:32;21.40;69.20
38325;DHT22;24126;52.672;13.622;2022-10-15T16:25:58;21.40;69.40
38325;DHT22;24126;52.672;13.622;2022-10-15T16:28:25;21.30;69.60
38325;DHT22;24126;52.672;13.622;2022-10-15T16:30:52;21.30;69.70
38325;DHT22;24126;52.672;13.622;2022-10-15T16:33:19;21.20;69.70
38325;DHT22;24126;52.672;13.622;2022-10-15T16:35:50;21.20;69.70
38325;DHT22;24126;52.672;13.622;2022-10-15T16:38:17;21.20;69.80
38325;DHT22;24126;52.672;13.622;2022-10-15T16:40:51;21.10;69.80
38325;DHT22;24126;52.672;13.622;2022-10-15T16:43:24;21.10;69.90
38325;DHT22;24126;52.672;13.622;2022-10-15T16:45:53;21.00;69.90
38325;DHT22;24126;52.672;13.622;2022-10-15T16:48:23;21.00;70.00
38325;DHT22;24126;52.672;13.622;2022-10-15T16:51:04;20.90;70.10
38325;DHT22;24126;52.672;13.622;2022-10-15T16:54:16;20.90;70.30
38325;DHT22;24126;52.672;13.622;2022-10-15T16:56:50;20.90;70.30
38325;DHT22;24126;52.672;13.622;2022-10-15T17:00:01;20.80;70.40
38325;DHT22;24126;52.672;13.622;2022-10-15T17:02:29;20.80;70.60
38325;DHT22;24126;52.672;13.622;2022-10-15T17:04:56;20.70;70.80
38325;DHT22;24126;52.672;13.622;2022-10-15T17:07:26;20.70;70.80
38325;DHT22;24126;52.672;13.622;2022-10-15T17:09:53;20.70;71.00
38325;DHT22;24126;52.672;13.622;2022-10-15T17:12:31;20.60;70.90
38325;DHT22;24126;52.672;13.622;2022-10-15T17:15:19;20.60;71.00
38325;DHT22;24126;52.672;13.622;2022-10-15T17:17:46;20.60;71.20
38325;DHT22;24126;52.672;13.622;2022-10-15T17:20:22;20.50;71.30
38325;DHT22;24126;52.672;13.622;2022-10-15T17:22:58;20.50;71.40
38325;DHT22;24126;52.672;13.622;2022-10-15T17:25:25;20.40;71.60
38325;DHT22;24126;52.672;13.622;2022-10-15T17:27:55;20.40;71.60
38325;DHT22;24126;52.672;13.622;2022-10-15T17:30:22;20.40;71.50
38325;DHT22;24126;52.672;13.622;2022-10-15T17:32:49;20.40;71.70
38325;DHT22;24126;52.672;13.622;2022-10-15T17:35:16;20.30;71.80
38325;DHT22;24126;52.672;13.622;2022-10-15T17:37:44;20.30;71.80
38325;DHT22;24126;52.672;13.622;2022-10-15T17:40:12;20.30;72.60
38325;DHT22;24126;52.672;13.622;2022-10-15T17:42:39;20.30;71.80
38325;DHT22;24126;52.672;13.622;2022-10-15T17:45:08;20.30;71.70
38325;DHT22;24126;52.672;13.622;2022-10-15T17:47:39;20.20;72.00
38325;DHT22;24126;52.672;13.622;2022-10-15T17:50:06;20.20;72.30
38325;DHT22;24126;52.672;13.622;2022-10-15T17:52:33;20.10;72.40
38325;DHT22;24126;52.672;13.622;2022-10-15T17:55:00;20.10;72.80
38325;DHT22;24126;52.672;13.622;2022-10-15T17:57:27;20.00;72.90
38325;DHT22;24126;52.672;13.622;2022-10-15T17:59:54;20.00;73.20
38325;DHT22;24126;52.672;13.622;2022-10-15T18:02:21;19.90;73.30
38325;DHT22;24126;52.672;13.622;2022-10-15T18:04:51;19.90;73.30
38325;DHT22;24126;52.672;13.622;2022-10-15T18:07:17;19.90;73.40
38325;DHT22;24126;52.672;13.622;2022-10-15T18:09:45;19.80;73.50
38325;DHT22;24126;52.672;13.622;2022-10-15T18:12:12;19.80;73.70
38325;DHT22;24126;52.672;13.622;2022-10-15T18:14:39;19.70;73.90
38325;DHT22;24126;52.672;13.622;2022-10-15T18:17:06;19.70;74.00
38325;DHT22;24126;52.672;13.622;2022-10-15T18:19:33;19.70;74.20
38325;DHT22;24126;52.672;13.622;2022-10-15T18:22:00;19.70;74.30
38325;DHT22;24126;52.672;13.622;2022-10-15T18:24:27;19.60;74.40
38325;DHT22;24126;52.672;13.622;2022-10-15T18:26:54;19.50;74.50
38325;DHT22;24126;52.672;13.622;2022-10-15T18:29:21;19.50;74.60
38325;DHT22;24126;52.672;13.622;2022-10-15T18:31:50;19.50;75.50